sensor_id;sensor_type;location;lat;lon;timestamp;P1;durP1;ratioP1;P2;durP2;ratioP2
16998;SDS011;10211;49.476;11.010;2023-04-19T00:01:56;7.77;;;6.00;;
16998;SDS011;10211;49.476;11.010;2023-04-19T00:04:23;7.53;;;5.87;;
16998;SDS011;10211;49.476;11.010;2023-04-19T00:06:50;8.83;;;6.53;;
16998;SDS011;10211;49.476;11.010;2023-04-19T00:09:17;8.23;;;6.50;;
16998;SDS011;10211;49.476;11.010;2023-04-19T00:11:44;7.50;;;6.30;;
16998;SDS011;10211;49.476;11.010;2023-04-19T00:14:11;9.17;;;7.37;;
16998;SDS011;10211;49.476;11.010;2023-04-19T00:16:38;9.83;;;7.43;;
16998;SDS011;10211;49.476;11.010;2023-04-19T00:19:06;11.33;;;7.53;;
16998;SDS011;10211;49.476;11.010;2023-04-19T00:21:33;9.60;;;7.17;;
16998;SDS011;10211;49.476;11.010;2023-04-19T00:24:01;9.07;;;7.03;;
16998;SDS011;10211;49.476;11.010;2023-04-19T00:26:27;12.47;;;7.57;;
16998;SDS011;10211;49.476;11.010;2023-04-19T00:28:54;9.17;;;7.13;;
16998;SDS011;10211;49.476;11.010;2023-04-19T00:31:21;8.13;;;7.00;;
16998;SDS011;10211;49.476;11.010;2023-04-19T00:33:48;10.27;;;7.00;;
16998;SDS011;10211;49.476;11.010;2023-04-19T00:36:16;8.73;;;6.50;;
16998;SDS011;10211;49.476;11.010;2023-04-19T00:38:42;9.07;;;6.93;;
16998;SDS011;10211;49.476;11.010;2023-04-19T00:41:09;9.13;;;7.50;;
16998;SDS011;10211;49.476;11.010;2023-04-19T00:43:36;10.33;;;7.17;;
16998;SDS011;10211;49.476;11.010;2023-04-19T00:46:03;12.80;;;7.70;;
16998;SDS011;10211;49.476;11.010;2023-04-19T00:48:30;10.80;;;7.97;;
16998;SDS011;10211;49.476;11.010;2023-04-19T00:51:00;9.13;;;8.00;;
16998;SDS011;10211;49.476;11.010;2023-04-19T00:53:29;11.77;;;8.87;;
16998;SDS011;10211;49.476;11.010;2023-04-19T00:55:56;10.83;;;8.47;;
16998;SDS011;10211;49.476;11.010;2023-04-19T00:58:28;9.97;;;7.67;;
16998;SDS011;10211;49.476;11.010;2023-04-19T01:00:56;10.37;;;7.83;;
16998;SDS011;10211;49.476;11.010;2023-04-19T01:03:24;12.90;;;7.80;;
16998;SDS011;10211;49.476;11.010;2023-04-19T01:05:51;9.97;;;7.80;;
16998;SDS011;10211;49.476;11.010;2023-04-19T01:08:18;11.20;;;7.83;;
16998;SDS011;10211;49.476;11.010;2023-04-19T01:10:46;12.43;;;8.27;;
16998;SDS011;10211;49.476;11.010;2023-04-19T01:13:13;9.87;;;7.87;;
16998;SDS011;10211;49.476;11.010;2023-04-19T01:15:40;12.53;;;7.90;;
16998;SDS011;10211;49.476;11.010;2023-04-19T01:18:06;9.80;;;8.30;;
16998;SDS011;10211;49.476;11.010;2023-04-19T01:20:35;11.73;;;8.30;;
16998;SDS011;10211;49.476;11.010;2023-04-19T01:23:03;9.60;;;7.50;;
16998;SDS011;10211;49.476;11.010;2023-04-19T01:25:30;10.20;;;8.00;;
16998;SDS011;10211;49.476;11.010;2023-04-19T01:27:57;12.23;;;8.87;;
16998;SDS011;10211;49.476;11.010;2023-04-19T01:30:24;9.47;;;7.57;;
16998;SDS011;10211;49.476;11.010;2023-04-19T01:32:51;9.50;;;7.67;;
16998;SDS011;10211;49.476;11.010;2023-04-19T01:35:18;9.60;;;7.63;;
16998;SDS011;10211;49.476;11.010;2023-04-19T01:37:45;11.30;;;7.00;;
16998;SDS011;10211;49.476;11.010;2023-04-19T01:40:14;11.33;;;8.43;;
16998;SDS011;10211;49.476;11.010;2023-04-19T01:42:41;11.70;;;7.90;;
16998;SDS011;10211;49.476;11.010;2023-04-19T01:45:08;10.50;;;7.90;;
16998;SDS011;10211;49.476;11.010;2023-04-19T01:47:35;12.43;;;8.33;;
16998;SDS011;10211;49.476;11.010;2023-04-19T01:50:02;12.57;;;9.33;;
16998;SDS011;10211;49.476;11.010;2023-04-19T01:52:29;13.77;;;9.57;;
16998;SDS011;10211;49.476;11.010;2023-04-19T01:54:56;10.90;;;8.23;;
16998;SDS011;10211;49.476;11.010;2023-04-19T01:57:24;10.33;;;8.43;;
16998;SDS011;10211;49.476;11.010;2023-04-19T01:59:51;9.87;;;8.00;;
16998;SDS011;10211;49.476;11.010;2023-04-19T02:02:18;10.33;;;8.30;;
16998;SDS011;10211;49.476;11.010;2023-04-19T02:04:45;10.10;;;7.70;;
16998;SDS011;10211;49.476;11.010;2023-04-19T02:07:12;9.50;;;7.33;;
16998;SDS011;10211;49.476;11.010;2023-04-19T02:09:38;8.10;;;7.30;;
16998;SDS011;10211;49.476;11.010;2023-04-19T02:12:05;12.37;;;8.07;;
16998;SDS011;10211;49.476;11.010;2023-04-19T02:14:33;8.87;;;7.17;;
16998;SDS011;10211;49.476;11.010;2023-04-19T02:17:00;8.87;;;7.23;;
16998;SDS011;10211;49.476;11.010;2023-04-19T02:19:27;10.73;;;6.87;;
16998;SDS011;10211;49.476;11.010;2023-04-19T02:21:54;9.27;;;7.00;;
16998;SDS011;10211;49.476;11.010;2023-04-19T02:24:21;9.70;;;6.90;;
16998;SDS011;10211;49.476;11.010;2023-04-19T02:26:49;9.37;;;7.50;;
16998;SDS011;10211;49.476;11.010;2023-04-19T02:29:17;11.27;;;8.33;;
16998;SDS011;10211;49.476;11.010;2023-04-19T02:31:45;11.50;;;9.10;;
16998;SDS011;10211;49.476;11.010;2023-04-19T02:34:12;10.37;;;7.83;;
16998;SDS011;10211;49.476;11.010;2023-04-19T02:36:39;12.27;;;7.93;;
16998;SDS011;10211;49.476;11.010;2023-04-19T02:39:05;11.43;;;8.13;;
16998;SDS011;10211;49.476;11.010;2023-04-19T02:41:32;9.23;;;7.43;;
16998;SDS011;10211;49.476;11.010;2023-04-19T02:43:59;10.43;;;7.60;;
16998;SDS011;10211;49.476;11.010;2023-04-19T02:46:26;10.77;;;8.10;;
16998;SDS011;10211;49.476;11.010;2023-04-19T02:48:54;9.57;;;7.33;;
16998;SDS011;10211;49.476;11.010;2023-04-19T02:51:20;10.53;;;6.73;;
16998;SDS011;10211;49.476;11.010;2023-04-19T02:53:48;12.33;;;7.27;;
16998;SDS011;10211;49.476;11.010;2023-04-19T02:56:15;12.57;;;7.33;;
16998;SDS011;10211;49.476;11.010;2023-04-19T02:58:42;10.47;;;7.30;;
16998;SDS011;10211;49.476;11.010;2023-04-19T03:01:09;10.23;;;7.03;;
16998;SDS011;10211;49.476;11.010;2023-04-19T03:03:35;13.13;;;7.30;;
16998;SDS011;10211;49.476;11.010;2023-04-19T03:06:04;11.20;;;8.17;;
16998;SDS011;10211;49.476;11.010;2023-04-19T03:08:31;9.27;;;7.07;;
16998;SDS011;10211;49.476;11.010;2023-04-19T03:10:57;9.00;;;7.37;;
16998;SDS011;10211;49.476;11.010;2023-04-19T03:13:24;10.60;;;7.77;;
16998;SDS011;10211;49.476;11.010;2023-04-19T03:15:51;12.47;;;7.90;;
16998;SDS011;10211;49.476;11.010;2023-04-19T03:18:17;11.30;;;7.47;;
16998;SDS011;10211;49.476;11.010;2023-04-19T03:20:44;8.83;;;6.83;;
16998;SDS011;10211;49.476;11.010;2023-04-19T03:23:12;10.47;;;7.80;;
16998;SDS011;10211;49.476;11.010;2023-04-19T03:25:39;13.40;;;7.97;;
16998;SDS011;10211;49.476;11.010;2023-04-19T03:28:06;10.60;;;6.87;;
16998;SDS011;10211;49.476;11.010;2023-04-19T03:30:33;9.57;;;8.10;;
16998;SDS011;10211;49.476;11.010;2023-04-19T03:32:59;8.43;;;6.93;;
16998;SDS011;10211;49.476;11.010;2023-04-19T03:35:26;11.57;;;7.57;;
16998;SDS011;10211;49.476;11.010;2023-04-19T03:37:54;10.17;;;7.63;;
16998;SDS011;10211;49.476;11.010;2023-04-19T03:40:23;11.40;;;7.87;;
16998;SDS011;10211;49.476;11.010;2023-04-19T03:42:49;12.67;;;7.80;;
16998;SDS011;10211;49.476;11.010;2023-04-19T03:45:16;9.93;;;7.80;;
16998;SDS011;10211;49.476;11.010;2023-04-19T03:47:43;13.87;;;8.60;;
16998;SDS011;10211;49.476;11.010;2023-04-19T03:50:09;11.37;;;7.87;;
16998;SDS011;10211;49.476;11.010;2023-04-19T03:52:36;11.67;;;7.30;;
16998;SDS011;10211;49.476;11.010;2023-04-19T03:55:03;11.57;;;8.37;;
16998;SDS011;10211;49.476;11.010;2023-04-19T03:57:32;10.07;;;7.67;;
16998;SDS011;10211;49.476;11.010;2023-04-19T03:59:59;9.07;;;7.40;;
16998;SDS011;10211;49.476;11.010;2023-04-19T04:02:26;11.57;;;7.63;;
16998;SDS011;10211;49.476;11.010;2023-04-19T04:04:53;12.47;;;7.97;;
16998;SDS011;10211;49.476;11.010;2023-04-19T04:07:20;11.43;;;7.83;;
16998;SDS011;10211;49.476;11.010;2023-04-19T04:09:47;9.53;;;7.20;;
16998;SDS011;10211;49.476;11.010;2023-04-19T04:12:16;9.53;;;7.30;;
16998;SDS011;10211;49.476;11.010;2023-04-19T04:14:44;10.83;;;7.50;;
16998;SDS011;10211;49.476;11.010;2023-04-19T04:17:11;10.63;;;7.07;;
16998;SDS011;10211;49.476;11.010;2023-04-19T04:19:37;10.40;;;7.77;;
16998;SDS011;10211;49.476;11.010;2023-04-19T04:22:05;11.53;;;7.70;;
16998;SDS011;10211;49.476;11.010;2023-04-19T04:24:36;11.17;;;7.93;;
16998;SDS011;10211;49.476;11.010;2023-04-19T04:27:05;13.03;;;8.13;;
16998;SDS011;10211;49.476;11.010;2023-04-19T04:29:34;13.40;;;9.10;;
16998;SDS011;10211;49.476;11.010;2023-04-19T04:32:02;9.77;;;8.33;;
16998;SDS011;10211;49.476;11.010;2023-04-19T04:34:29;13.90;;;9.27;;
16998;SDS011;10211;49.476;11.010;2023-04-19T04:36:57;13.83;;;10.40;;
16998;SDS011;10211;49.476;11.010;2023-04-19T04:39:23;12.00;;;8.60;;
16998;SDS011;10211;49.476;11.010;2023-04-19T04:41:50;14.13;;;8.37;;
16998;SDS011;10211;49.476;11.010;2023-04-19T04:44:17;11.93;;;8.43;;
16998;SDS011;10211;49.476;11.010;2023-04-19T04:46:46;12.30;;;8.53;;
16998;SDS011;10211;49.476;11.010;2023-04-19T04:49:14;15.60;;;8.67;;
16998;SDS011;10211;49.476;11.010;2023-04-19T04:51:41;11.87;;;8.73;;
16998;SDS011;10211;49.476;11.010;2023-04-19T04:54:08;14.33;;;8.30;;
16998;SDS011;10211;49.476;11.010;2023-04-19T04:56:34;12.00;;;8.60;;
16998;SDS011;10211;49.476;11.010;2023-04-19T04:59:01;11.47;;;8.80;;
16998;SDS011;10211;49.476;11.010;2023-04-19T05:01:28;11.63;;;8.87;;
16998;SDS011;10211;49.476;11.010;2023-04-19T05:03:55;12.63;;;9.33;;
16998;SDS011;10211;49.476;11.010;2023-04-19T05:06:23;12.40;;;8.43;;
16998;SDS011;10211;49.476;11.010;2023-04-19T05:08:50;14.33;;;9.33;;
16998;SDS011;10211;49.476;11.010;2023-04-19T05:11:17;11.30;;;8.30;;
16998;SDS011;10211;49.476;11.010;2023-04-19T05:13:45;12.67;;;9.23;;
16998;SDS011;10211;49.476;11.010;2023-04-19T05:16:12;12.33;;;9.10;;
16998;SDS011;10211;49.476;11.010;2023-04-19T05:18:40;13.17;;;8.47;;
16998;SDS011;10211;49.476;11.010;2023-04-19T05:21:07;11.83;;;9.27;;
16998;SDS011;10211;49.476;11.010;2023-04-19T05:23:36;15.27;;;9.63;;
16998;SDS011;10211;49.476;11.010;2023-04-19T05:26:03;12.47;;;8.60;;
16998;SDS011;10211;49.476;11.010;2023-04-19T05:28:30;12.93;;;9.50;;
16998;SDS011;10211;49.476;11.010;2023-04-19T05:31:02;12.67;;;9.43;;
16998;SDS011;10211;49.476;11.010;2023-04-19T05:33:31;12.87;;;9.47;;
16998;SDS011;10211;49.476;11.010;2023-04-19T05:35:57;12.27;;;9.03;;
16998;SDS011;10211;49.476;11.010;2023-04-19T05:38:26;12.93;;;9.57;;
16998;SDS011;10211;49.476;11.010;2023-04-19T05:40:54;16.33;;;10.10;;
16998;SDS011;10211;49.476;11.010;2023-04-19T05:43:20;14.77;;;9.33;;
16998;SDS011;10211;49.476;11.010;2023-04-19T05:45:48;13.90;;;9.60;;
16998;SDS011;10211;49.476;11.010;2023-04-19T05:48:17;12.13;;;9.30;;
16998;SDS011;10211;49.476;11.010;2023-04-19T05:50:43;12.77;;;9.00;;
16998;SDS011;10211;49.476;11.010;2023-04-19T05:53:10;12.60;;;8.83;;
16998;SDS011;10211;49.476;11.010;2023-04-19T05:55:37;13.63;;;9.33;;
16998;SDS011;10211;49.476;11.010;2023-04-19T05:58:05;12.80;;;9.33;;
16998;SDS011;10211;49.476;11.010;2023-04-19T06:00:32;15.83;;;10.37;;
16998;SDS011;10211;49.476;11.010;2023-04-19T06:02:59;15.10;;;9.53;;
16998;SDS011;10211;49.476;11.010;2023-04-19T06:05:25;16.27;;;10.87;;
16998;SDS011;10211;49.476;11.010;2023-04-19T06:07:52;13.40;;;9.90;;
16998;SDS011;10211;49.476;11.010;2023-04-19T06:10:20;16.03;;;10.70;;
16998;SDS011;10211;49.476;11.010;2023-04-19T06:12:47;14.47;;;10.27;;
16998;SDS011;10211;49.476;11.010;2023-04-19T06:15:15;18.97;;;11.67;;
16998;SDS011;10211;49.476;11.010;2023-04-19T06:17:42;14.90;;;10.63;;
16998;SDS011;10211;49.476;11.010;2023-04-19T06:20:09;12.10;;;9.17;;
16998;SDS011;10211;49.476;11.010;2023-04-19T06:22:40;11.47;;;9.30;;
16998;SDS011;10211;49.476;11.010;2023-04-19T06:25:08;15.70;;;10.47;;
16998;SDS011;10211;49.476;11.010;2023-04-19T06:27:36;13.40;;;9.07;;
16998;SDS011;10211;49.476;11.010;2023-04-19T06:30:04;14.33;;;9.07;;
16998;SDS011;10211;49.476;11.010;2023-04-19T06:32:33;11.90;;;8.47;;
16998;SDS011;10211;49.476;11.010;2023-04-19T06:35:00;11.17;;;8.70;;
16998;SDS011;10211;49.476;11.010;2023-04-19T06:37:28;11.80;;;8.90;;
16998;SDS011;10211;49.476;11.010;2023-04-19T06:39:55;14.17;;;8.47;;
16998;SDS011;10211;49.476;11.010;2023-04-19T06:42:22;15.20;;;9.40;;
16998;SDS011;10211;49.476;11.010;2023-04-19T06:44:49;12.03;;;8.50;;
16998;SDS011;10211;49.476;11.010;2023-04-19T06:47:16;12.23;;;8.40;;
16998;SDS011;10211;49.476;11.010;2023-04-19T06:49:45;13.60;;;9.53;;
16998;SDS011;10211;49.476;11.010;2023-04-19T06:52:11;11.43;;;9.20;;
16998;SDS011;10211;49.476;11.010;2023-04-19T06:54:38;13.50;;;10.47;;
16998;SDS011;10211;49.476;11.010;2023-04-19T06:57:06;13.07;;;9.60;;
16998;SDS011;10211;49.476;11.010;2023-04-19T06:59:33;17.73;;;10.07;;
16998;SDS011;10211;49.476;11.010;2023-04-19T07:02:03;13.73;;;10.47;;
16998;SDS011;10211;49.476;11.010;2023-04-19T07:04:30;11.57;;;8.97;;
16998;SDS011;10211;49.476;11.010;2023-04-19T07:06:58;19.93;;;9.30;;
16998;SDS011;10211;49.476;11.010;2023-04-19T07:09:25;12.07;;;9.93;;
16998;SDS011;10211;49.476;11.010;2023-04-19T07:11:52;16.47;;;10.27;;
16998;SDS011;10211;49.476;11.010;2023-04-19T07:14:19;14.93;;;10.13;;
16998;SDS011;10211;49.476;11.010;2023-04-19T07:16:47;14.30;;;10.73;;
16998;SDS011;10211;49.476;11.010;2023-04-19T07:19:14;15.37;;;10.27;;
16998;SDS011;10211;49.476;11.010;2023-04-19T07:21:43;14.67;;;10.67;;
16998;SDS011;10211;49.476;11.010;2023-04-19T07:24:11;13.23;;;10.53;;
16998;SDS011;10211;49.476;11.010;2023-04-19T07:26:38;13.10;;;9.93;;
16998;SDS011;10211;49.476;11.010;2023-04-19T07:29:04;15.50;;;11.20;;
16998;SDS011;10211;49.476;11.010;2023-04-19T07:31:31;16.13;;;11.27;;
16998;SDS011;10211;49.476;11.010;2023-04-19T07:33:58;15.20;;;11.27;;
16998;SDS011;10211;49.476;11.010;2023-04-19T07:36:25;19.17;;;11.83;;
16998;SDS011;10211;49.476;11.010;2023-04-19T07:38:52;20.17;;;13.53;;
16998;SDS011;10211;49.476;11.010;2023-04-19T07:41:20;18.70;;;12.60;;
16998;SDS011;10211;49.476;11.010;2023-04-19T07:43:47;18.37;;;12.83;;
16998;SDS011;10211;49.476;11.010;2023-04-19T07:46:14;20.90;;;14.43;;
16998;SDS011;10211;49.476;11.010;2023-04-19T07:48:42;16.60;;;12.70;;
16998;SDS011;10211;49.476;11.010;2023-04-19T07:51:09;20.93;;;13.43;;
16998;SDS011;10211;49.476;11.010;2023-04-19T07:53:37;17.87;;;12.77;;
16998;SDS011;10211;49.476;11.010;2023-04-19T07:56:04;17.97;;;12.60;;
16998;SDS011;10211;49.476;11.010;2023-04-19T07:58:33;18.80;;;12.67;;
16998;SDS011;10211;49.476;11.010;2023-04-19T08:01:00;17.90;;;12.57;;
16998;SDS011;10211;49.476;11.010;2023-04-19T08:03:27;15.20;;;12.27;;
16998;SDS011;10211;49.476;11.010;2023-04-19T08:05:54;21.47;;;14.30;;
16998;SDS011;10211;49.476;11.010;2023-04-19T08:08:21;19.00;;;12.80;;
16998;SDS011;10211;49.476;11.010;2023-04-19T08:10:49;17.67;;;12.70;;
16998;SDS011;10211;49.476;11.010;2023-04-19T08:13:19;18.00;;;12.97;;
16998;SDS011;10211;49.476;11.010;2023-04-19T08:15:47;21.27;;;14.13;;
16998;SDS011;10211;49.476;11.010;2023-04-19T08:18:14;18.57;;;13.00;;
16998;SDS011;10211;49.476;11.010;2023-04-19T08:20:40;19.70;;;14.17;;
16998;SDS011;10211;49.476;11.010;2023-04-19T08:23:07;16.13;;;12.53;;
16998;SDS011;10211;49.476;11.010;2023-04-19T08:25:35;19.20;;;13.93;;
16998;SDS011;10211;49.476;11.010;2023-04-19T08:28:02;14.97;;;11.93;;
16998;SDS011;10211;49.476;11.010;2023-04-19T08:30:30;18.30;;;13.23;;
16998;SDS011;10211;49.476;11.010;2023-04-19T08:32:59;17.03;;;13.40;;
16998;SDS011;10211;49.476;11.010;2023-04-19T08:35:26;17.97;;;12.87;;
16998;SDS011;10211;49.476;11.010;2023-04-19T08:37:53;21.87;;;14.43;;
16998;SDS011;10211;49.476;11.010;2023-04-19T08:40:20;22.60;;;14.80;;
16998;SDS011;10211;49.476;11.010;2023-04-19T08:42:47;15.63;;;12.67;;
16998;SDS011;10211;49.476;11.010;2023-04-19T08:45:14;15.77;;;12.43;;
16998;SDS011;10211;49.476;11.010;2023-04-19T08:47:41;16.37;;;11.43;;
16998;SDS011;10211;49.476;11.010;2023-04-19T08:50:12;14.00;;;12.43;;
16998;SDS011;10211;49.476;11.010;2023-04-19T08:52:40;15.47;;;12.37;;
16998;SDS011;10211;49.476;11.010;2023-04-19T08:55:07;16.00;;;12.67;;
16998;SDS011;10211;49.476;11.010;2023-04-19T08:57:37;14.90;;;11.47;;
16998;SDS011;10211;49.476;11.010;2023-04-19T09:00:04;17.17;;;13.30;;
16998;SDS011;10211;49.476;11.010;2023-04-19T09:02:43;16.87;;;13.10;;
16998;SDS011;10211;49.476;11.010;2023-04-19T09:05:13;17.60;;;13.17;;
16998;SDS011;10211;49.476;11.010;2023-04-19T09:07:42;16.83;;;12.83;;
16998;SDS011;10211;49.476;11.010;2023-04-19T09:10:10;15.27;;;12.97;;
16998;SDS011;10211;49.476;11.010;2023-04-19T09:12:38;18.10;;;12.73;;
16998;SDS011;10211;49.476;11.010;2023-04-19T09:15:06;15.10;;;13.07;;
16998;SDS011;10211;49.476;11.010;2023-04-19T09:17:34;13.07;;;11.43;;
16998;SDS011;10211;49.476;11.010;2023-04-19T09:20:02;14.47;;;9.93;;
16998;SDS011;10211;49.476;11.010;2023-04-19T09:22:32;10.83;;;8.73;;
16998;SDS011;10211;49.476;11.010;2023-04-19T09:24:59;10.90;;;8.63;;
16998;SDS011;10211;49.476;11.010;2023-04-19T09:27:26;9.53;;;7.70;;
16998;SDS011;10211;49.476;11.010;2023-04-19T09:29:54;12.97;;;8.03;;
16998;SDS011;10211;49.476;11.010;2023-04-19T09:32:21;8.40;;;6.77;;
16998;SDS011;10211;49.476;11.010;2023-04-19T09:34:52;6.33;;;5.60;;
16998;SDS011;10211;49.476;11.010;2023-04-19T09:37:20;9.23;;;6.73;;
16998;SDS011;10211;49.476;11.010;2023-04-19T09:39:48;8.70;;;6.37;;
16998;SDS011;10211;49.476;11.010;2023-04-19T09:42:15;8.40;;;6.83;;
16998;SDS011;10211;49.476;11.010;2023-04-19T09:44:56;7.27;;;6.10;;
16998;SDS011;10211;49.476;11.010;2023-04-19T09:47:24;9.40;;;7.07;;
16998;SDS011;10211;49.476;11.010;2023-04-19T09:50:05;10.80;;;7.70;;
16998;SDS011;10211;49.476;11.010;2023-04-19T09:52:33;10.67;;;7.47;;
16998;SDS011;10211;49.476;11.010;2023-04-19T09:55:02;10.10;;;7.87;;
16998;SDS011;10211;49.476;11.010;2023-04-19T09:57:31;8.93;;;7.27;;
16998;SDS011;10211;49.476;11.010;2023-04-19T09:59:59;11.73;;;7.90;;
16998;SDS011;10211;49.476;11.010;2023-04-19T10:02:28;10.70;;;7.33;;
16998;SDS011;10211;49.476;11.010;2023-04-19T10:04:57;10.87;;;8.27;;
16998;SDS011;10211;49.476;11.010;2023-04-19T10:07:25;10.07;;;7.90;;
16998;SDS011;10211;49.476;11.010;2023-04-19T10:09:53;10.00;;;8.03;;
16998;SDS011;10211;49.476;11.010;2023-04-19T10:12:24;9.03;;;6.37;;
16998;SDS011;10211;49.476;11.010;2023-04-19T10:14:52;9.87;;;7.63;;
16998;SDS011;10211;49.476;11.010;2023-04-19T10:17:21;8.83;;;6.83;;
16998;SDS011;10211;49.476;11.010;2023-04-19T10:19:50;11.93;;;8.00;;
16998;SDS011;10211;49.476;11.010;2023-04-19T10:22:22;12.40;;;7.63;;
16998;SDS011;10211;49.476;11.010;2023-04-19T10:25:09;9.73;;;7.43;;
16998;SDS011;10211;49.476;11.010;2023-04-19T10:27:38;12.13;;;7.40;;
16998;SDS011;10211;49.476;11.010;2023-04-19T10:30:06;10.83;;;7.13;;
16998;SDS011;10211;49.476;11.010;2023-04-19T10:32:43;12.00;;;7.40;;
16998;SDS011;10211;49.476;11.010;2023-04-19T10:35:16;7.83;;;6.67;;
16998;SDS011;10211;49.476;11.010;2023-04-19T10:40:54;9.73;;;7.03;;
16998;SDS011;10211;49.476;11.010;2023-04-19T10:43:31;7.10;;;5.87;;
16998;SDS011;10211;49.476;11.010;2023-04-19T10:45:59;8.47;;;6.33;;
16998;SDS011;10211;49.476;11.010;2023-04-19T10:48:32;9.07;;;6.73;;
16998;SDS011;10211;49.476;11.010;2023-04-19T10:51:02;6.67;;;5.90;;
16998;SDS011;10211;49.476;11.010;2023-04-19T10:53:47;8.00;;;5.87;;
16998;SDS011;10211;49.476;11.010;2023-04-19T10:56:15;6.20;;;5.13;;
16998;SDS011;10211;49.476;11.010;2023-04-19T11:01:49;5.10;;;4.60;;
16998;SDS011;10211;49.476;11.010;2023-04-19T11:04:17;5.72;;;4.80;;
16998;SDS011;10211;49.476;11.010;2023-04-19T11:09:29;5.20;;;4.68;;
16998;SDS011;10211;49.476;11.010;2023-04-19T11:11:59;5.70;;;4.88;;
16998;SDS011;10211;49.476;11.010;2023-04-19T11:14:30;5.55;;;4.78;;
16998;SDS011;10211;49.476;11.010;2023-04-19T11:16:58;6.13;;;4.78;;
16998;SDS011;10211;49.476;11.010;2023-04-19T11:19:25;4.80;;;4.32;;
16998;SDS011;10211;49.476;11.010;2023-04-19T11:21:52;5.10;;;4.60;;
16998;SDS011;10211;49.476;11.010;2023-04-19T11:24:23;4.82;;;4.22;;
16998;SDS011;10211;49.476;11.010;2023-04-19T11:26:51;5.25;;;4.75;;
16998;SDS011;10211;49.476;11.010;2023-04-19T11:29:20;6.07;;;5.05;;
16998;SDS011;10211;49.476;11.010;2023-04-19T11:31:48;4.65;;;4.25;;
16998;SDS011;10211;49.476;11.010;2023-04-19T11:34:15;7.45;;;4.43;;
16998;SDS011;10211;49.476;11.010;2023-04-19T11:36:47;5.03;;;3.42;;
16998;SDS011;10211;49.476;11.010;2023-04-19T11:39:14;4.10;;;3.35;;
16998;SDS011;10211;49.476;11.010;2023-04-19T11:41:41;3.93;;;3.33;;
16998;SDS011;10211;49.476;11.010;2023-04-19T11:44:14;4.43;;;3.35;;
16998;SDS011;10211;49.476;11.010;2023-04-19T11:46:57;3.72;;;3.35;;
16998;SDS011;10211;49.476;11.010;2023-04-19T11:49:25;4.57;;;3.10;;
16998;SDS011;10211;49.476;11.010;2023-04-19T11:51:54;4.57;;;3.10;;
16998;SDS011;10211;49.476;11.010;2023-04-19T11:54:22;4.25;;;2.83;;
16998;SDS011;10211;49.476;11.010;2023-04-19T11:56:59;5.25;;;3.03;;
16998;SDS011;10211;49.476;11.010;2023-04-19T11:59:28;4.18;;;2.97;;
16998;SDS011;10211;49.476;11.010;2023-04-19T12:02:02;3.30;;;2.60;;
16998;SDS011;10211;49.476;11.010;2023-04-19T12:04:30;1.98;;;1.88;;
16998;SDS011;10211;49.476;11.010;2023-04-19T12:06:57;2.80;;;2.00;;
16998;SDS011;10211;49.476;11.010;2023-04-19T12:09:25;2.70;;;2.28;;
16998;SDS011;10211;49.476;11.010;2023-04-19T12:11:52;2.05;;;1.80;;
16998;SDS011;10211;49.476;11.010;2023-04-19T12:14:19;1.70;;;1.60;;
16998;SDS011;10211;49.476;11.010;2023-04-19T12:17:08;3.30;;;1.75;;
16998;SDS011;10211;49.476;11.010;2023-04-19T12:19:36;2.10;;;1.58;;
16998;SDS011;10211;49.476;11.010;2023-04-19T12:22:10;2.85;;;1.98;;
16998;SDS011;10211;49.476;11.010;2023-04-19T12:24:38;2.20;;;1.60;;
16998;SDS011;10211;49.476;11.010;2023-04-19T12:27:06;1.42;;;1.33;;
16998;SDS011;10211;49.476;11.010;2023-04-19T12:29:33;5.18;;;1.80;;
16998;SDS011;10211;49.476;11.010;2023-04-19T12:32:00;1.80;;;1.70;;
16998;SDS011;10211;49.476;11.010;2023-04-19T12:34:28;1.60;;;1.50;;
16998;SDS011;10211;49.476;11.010;2023-04-19T12:36:55;1.90;;;1.48;;
16998;SDS011;10211;49.476;11.010;2023-04-19T12:39:22;1.67;;;1.30;;
16998;SDS011;10211;49.476;11.010;2023-04-19T12:41:49;1.42;;;1.13;;
16998;SDS011;10211;49.476;11.010;2023-04-19T12:44:16;1.33;;;1.23;;
16998;SDS011;10211;49.476;11.010;2023-04-19T12:46:43;1.38;;;1.27;;
16998;SDS011;10211;49.476;11.010;2023-04-19T12:49:09;1.40;;;1.30;;
16998;SDS011;10211;49.476;11.010;2023-04-19T12:51:37;2.42;;;1.45;;
16998;SDS011;10211;49.476;11.010;2023-04-19T12:54:06;1.90;;;1.20;;
16998;SDS011;10211;49.476;11.010;2023-04-19T12:56:33;2.55;;;1.50;;
16998;SDS011;10211;49.476;11.010;2023-04-19T12:59:00;2.35;;;1.17;;
16998;SDS011;10211;49.476;11.010;2023-04-19T13:01:26;1.23;;;1.13;;
16998;SDS011;10211;49.476;11.010;2023-04-19T13:03:53;1.73;;;1.30;;
16998;SDS011;10211;49.476;11.010;2023-04-19T13:06:20;1.50;;;1.40;;
16998;SDS011;10211;49.476;11.010;2023-04-19T13:08:48;1.50;;;1.40;;
16998;SDS011;10211;49.476;11.010;2023-04-19T13:11:15;1.55;;;1.40;;
16998;SDS011;10211;49.476;11.010;2023-04-19T13:13:46;1.23;;;1.00;;
16998;SDS011;10211;49.476;11.010;2023-04-19T13:16:14;3.65;;;1.30;;
16998;SDS011;10211;49.476;11.010;2023-04-19T13:18:41;4.30;;;1.20;;
16998;SDS011;10211;49.476;11.010;2023-04-19T13:21:07;1.53;;;1.30;;
16998;SDS011;10211;49.476;11.010;2023-04-19T13:23:34;2.37;;;1.17;;
16998;SDS011;10211;49.476;11.010;2023-04-19T13:26:02;1.57;;;1.43;;
16998;SDS011;10211;49.476;11.010;2023-04-19T13:28:29;1.20;;;1.10;;
16998;SDS011;10211;49.476;11.010;2023-04-19T13:30:56;1.47;;;1.37;;
16998;SDS011;10211;49.476;11.010;2023-04-19T13:33:22;1.23;;;1.07;;
16998;SDS011;10211;49.476;11.010;2023-04-19T13:35:50;3.40;;;1.47;;
16998;SDS011;10211;49.476;11.010;2023-04-19T13:38:17;2.13;;;1.60;;
16998;SDS011;10211;49.476;11.010;2023-04-19T13:40:44;2.13;;;1.40;;
16998;SDS011;10211;49.476;11.010;2023-04-19T13:43:12;3.30;;;1.23;;
16998;SDS011;10211;49.476;11.010;2023-04-19T13:45:39;2.00;;;1.43;;
16998;SDS011;10211;49.476;11.010;2023-04-19T13:48:06;2.03;;;1.67;;
16998;SDS011;10211;49.476;11.010;2023-04-19T13:50:33;4.40;;;1.43;;
16998;SDS011;10211;49.476;11.010;2023-04-19T13:52:59;3.47;;;1.90;;
16998;SDS011;10211;49.476;11.010;2023-04-19T13:55:26;2.13;;;1.67;;
16998;SDS011;10211;49.476;11.010;2023-04-19T13:57:53;2.07;;;1.80;;
16998;SDS011;10211;49.476;11.010;2023-04-19T14:00:22;3.30;;;1.80;;
16998;SDS011;10211;49.476;11.010;2023-04-19T14:02:49;1.87;;;1.77;;
16998;SDS011;10211;49.476;11.010;2023-04-19T14:05:16;4.03;;;2.23;;
16998;SDS011;10211;49.476;11.010;2023-04-19T14:07:43;4.70;;;2.10;;
16998;SDS011;10211;49.476;11.010;2023-04-19T14:10:10;4.77;;;1.77;;
16998;SDS011;10211;49.476;11.010;2023-04-19T14:12:37;2.73;;;1.90;;
16998;SDS011;10211;49.476;11.010;2023-04-19T14:15:04;6.57;;;2.10;;
16998;SDS011;10211;49.476;11.010;2023-04-19T14:17:32;7.00;;;2.47;;
16998;SDS011;10211;49.476;11.010;2023-04-19T14:19:59;3.10;;;1.70;;
16998;SDS011;10211;49.476;11.010;2023-04-19T14:22:26;3.70;;;1.73;;
16998;SDS011;10211;49.476;11.010;2023-04-19T14:24:53;3.13;;;1.67;;
16998;SDS011;10211;49.476;11.010;2023-04-19T14:27:20;6.90;;;2.00;;
16998;SDS011;10211;49.476;11.010;2023-04-19T14:29:47;2.77;;;1.97;;
16998;SDS011;10211;49.476;11.010;2023-04-19T14:32:13;2.33;;;1.63;;
16998;SDS011;10211;49.476;11.010;2023-04-19T14:34:42;3.07;;;1.87;;
16998;SDS011;10211;49.476;11.010;2023-04-19T14:37:08;4.90;;;2.37;;
16998;SDS011;10211;49.476;11.010;2023-04-19T14:39:35;2.53;;;1.80;;